createdAt,value
2018-10-18T00:02:13.737Z,69.86
2018-10-18T00:04:42.678Z,70.05
2018-10-18T00:07:11.972Z,69.96
2018-10-18T00:09:41.133Z,69.90
2018-10-18T00:12:10.599Z,70.14
2018-10-18T00:14:39.714Z,70.01
2018-10-18T00:17:13.927Z,70.28
2018-10-18T00:19:43.146Z,69.78
2018-10-18T00:22:12.362Z,69.54
2018-10-18T00:24:41.443Z,69.29
2018-10-18T00:27:10.273Z,69.16
2018-10-18T00:29:39.357Z,67.84
2018-10-18T00:32:08.570Z,68.25
2018-10-18T00:34:37.550Z,67.69
2018-10-18T00:37:06.467Z,68.44
2018-10-18T00:39:35.566Z,68.42
2018-10-18T00:42:04.936Z,67.97
2018-10-18T00:44:33.664Z,68.52
2018-10-18T00:47:02.588Z,68.46
2018-10-18T00:49:31.378Z,68.40
2018-10-18T00:52:00.355Z,68.76
2018-10-18T00:54:29.530Z,69.85
2018-10-18T00:56:58.561Z,69.75
2018-10-18T00:59:27.731Z,69.87
2018-10-18T01:01:56.816Z,70.30
2018-10-18T01:04:25.823Z,70.46
2018-10-18T01:06:54.855Z,70.83
2018-10-18T01:09:24.139Z,71.30
2018-10-18T01:11:53.216Z,71.27
2018-10-18T01:14:22.334Z,71.27
2018-10-18T01:16:55.501Z,71.08
2018-10-18T01:19:24.674Z,71.54
2018-10-18T01:21:53.452Z,70.37
2018-10-18T01:24:22.255Z,69.39
2018-10-18T01:26:51.530Z,70.35
2018-10-18T01:29:20.740Z,70.84
2018-10-18T01:31:49.779Z,70.54
2018-10-18T01:34:18.851Z,71.16
2018-10-18T01:36:48.077Z,70.65
2018-10-18T01:39:17.218Z,71.71
2018-10-18T01:41:46.366Z,71.78
2018-10-18T01:44:15.322Z,71.78
2018-10-18T01:46:44.414Z,72.00
2018-10-18T01:49:13.564Z,71.50
2018-10-18T01:51:42.701Z,72.53
2018-10-18T01:54:11.835Z,72.20
2018-10-18T01:56:40.835Z,72.07
2018-10-18T01:59:09.723Z,72.21
2018-10-18T02:01:38.868Z,71.50
2018-10-18T02:04:07.910Z,71.62
2018-10-18T02:06:36.971Z,72.06
2018-10-18T02:09:08.974Z,72.92
2018-10-18T02:11:38.162Z,72.94
2018-10-18T02:14:07.473Z,72.96
2018-10-18T02:16:36.319Z,73.04
2018-10-18T02:19:05.425Z,73.00
2018-10-18T02:21:34.561Z,73.15
2018-10-18T02:24:03.587Z,72.56
2018-10-18T02:26:32.739Z,72.70
2018-10-18T02:29:01.886Z,72.72
2018-10-18T02:31:30.918Z,72.70
2018-10-18T02:34:00.123Z,72.28
2018-10-18T02:36:29.166Z,72.38
2018-10-18T02:38:57.900Z,72.45
2018-10-18T02:41:27.001Z,72.24
2018-10-18T02:43:55.987Z,72.83
2018-10-18T02:46:25.247Z,72.75
2018-10-18T02:48:54.426Z,72.40
2018-10-18T02:51:23.475Z,72.54
2018-10-18T02:53:52.437Z,73.17
2018-10-18T02:56:21.299Z,72.49
2018-10-18T02:58:50.130Z,71.95
2018-10-18T03:01:18.950Z,70.97
2018-10-18T03:03:48.131Z,71.63
2018-10-18T03:06:16.904Z,71.90
2018-10-18T03:08:45.762Z,71.70
2018-10-18T03:11:14.530Z,71.70
2018-10-18T03:13:43.322Z,72.36
2018-10-18T03:16:12.587Z,72.83
2018-10-18T03:18:41.522Z,72.68
2018-10-18T03:21:10.713Z,72.45
2018-10-18T03:23:39.842Z,72.53
2018-10-18T03:26:08.590Z,72.46
2018-10-18T03:28:37.395Z,72.79
2018-10-18T03:31:06.539Z,72.92
2018-10-18T03:33:35.333Z,72.75
2018-10-18T03:36:04.169Z,72.66
2018-10-18T03:38:33.187Z,73.41
2018-10-18T03:41:02.037Z,72.75
2018-10-18T03:43:31.187Z,73.05
2018-10-18T03:46:00.038Z,72.75
2018-10-18T03:48:28.775Z,72.01
2018-10-18T03:50:57.565Z,71.26
2018-10-18T03:53:26.596Z,72.15
2018-10-18T03:55:55.737Z,71.87
2018-10-18T03:58:24.778Z,71.86
2018-10-18T04:00:53.874Z,71.36
2018-10-18T04:03:23.093Z,71.49
2018-10-18T04:05:52.222Z,71.87
2018-10-18T04:08:21.219Z,72.07
2018-10-18T04:10:49.931Z,71.20
2018-10-18T04:13:18.819Z,70.27
2018-10-18T04:15:47.780Z,69.81
2018-10-18T04:18:16.609Z,69.12
2018-10-18T04:20:45.326Z,69.69
2018-10-18T04:23:18.206Z,69.29
2018-10-18T04:25:47.002Z,69.48
2018-10-18T04:28:15.743Z,69.73
2018-10-18T04:30:44.543Z,70.00
2018-10-18T04:33:13.367Z,70.38
2018-10-18T04:35:42.170Z,69.16
2018-10-18T04:38:10.956Z,69.96
2018-10-18T04:40:39.685Z,70.16
2018-10-18T04:43:08.370Z,70.49
2018-10-18T04:45:37.363Z,70.45
2018-10-18T04:48:06.468Z,69.66
2018-10-18T04:50:35.065Z,69.68
2018-10-18T04:53:04.029Z,69.61
2018-10-18T04:55:32.754Z,70.07
2018-10-18T04:58:01.579Z,69.08
2018-10-18T05:00:30.326Z,68.59
2018-10-18T05:02:59.046Z,69.12
2018-10-18T05:05:38.878Z,69.38
2018-10-18T05:08:08.029Z,68.58
2018-10-18T05:10:37.292Z,68.48
2018-10-18T05:13:07.043Z,68.85
2018-10-18T05:15:36.213Z,69.20
2018-10-18T05:18:05.319Z,68.64
2018-10-18T05:20:34.417Z,68.10
2018-10-18T05:23:03.611Z,68.92
2018-10-18T05:25:32.884Z,68.94
2018-10-18T05:28:02.105Z,68.60
2018-10-18T05:30:31.159Z,69.84
2018-10-18T05:33:00.269Z,69.53
2018-10-18T05:35:29.373Z,69.19
2018-10-18T05:37:58.618Z,68.21
2018-10-18T05:40:27.683Z,67.44
2018-10-18T05:42:56.637Z,66.44
2018-10-18T05:45:25.726Z,66.34
2018-10-18T05:47:54.883Z,66.29
2018-10-18T05:50:24.185Z,66.57
2018-10-18T05:52:53.270Z,67.10
2018-10-18T05:55:22.248Z,66.17
2018-10-18T05:57:51.369Z,66.65
2018-10-18T06:00:20.693Z,65.37
2018-10-18T06:02:49.670Z,66.20
2018-10-18T06:05:19.306Z,66.15
2018-10-18T06:07:48.426Z,66.39
2018-10-18T06:10:28.778Z,65.19
2018-10-18T06:12:57.946Z,65.60
2018-10-18T06:15:26.892Z,64.52
2018-10-18T06:17:55.751Z,64.04
2018-10-18T06:20:24.640Z,64.50
2018-10-18T06:22:53.726Z,64.22
2018-10-18T06:25:22.958Z,64.22
2018-10-18T06:27:52.217Z,64.09
2018-10-18T06:30:21.462Z,64.22
2018-10-18T06:32:50.776Z,63.29
2018-10-18T06:35:19.733Z,63.41
2018-10-18T06:37:49.050Z,63.23
2018-10-18T06:40:18.722Z,62.48
2018-10-18T06:42:48.164Z,62.09
2018-10-18T06:45:18.639Z,61.81
2018-10-18T06:47:48.133Z,61.59
2018-10-18T06:50:21.345Z,61.16
2018-10-18T06:52:50.707Z,61.43
2018-10-18T06:55:19.883Z,61.28
2018-10-18T06:57:49.087Z,61.19
2018-10-18T07:00:24.377Z,61.21
2018-10-18T07:02:53.549Z,60.11
2018-10-18T07:05:22.714Z,59.57
2018-10-18T07:07:52.161Z,59.08
2018-10-18T07:10:20.961Z,59.07
2018-10-18T07:12:49.841Z,58.32
2018-10-18T07:15:18.678Z,57.42
2018-10-18T07:17:47.816Z,57.11
2018-10-18T07:20:17.081Z,57.06
2018-10-18T07:22:46.359Z,57.14
2018-10-18T07:25:16.440Z,57.27
2018-10-18T07:27:45.364Z,57.17
2018-10-18T07:30:15.201Z,56.68
2018-10-18T07:32:44.261Z,56.41
2018-10-18T07:35:14.385Z,56.61
2018-10-18T07:37:43.591Z,56.55
2018-10-18T07:40:14.484Z,55.96
2018-10-18T07:42:43.691Z,55.42
2018-10-18T07:45:13.862Z,54.73
2018-10-18T07:47:43.613Z,55.29
2018-10-18T07:50:13.279Z,54.73
2018-10-18T07:52:42.527Z,54.87
2018-10-18T07:55:11.778Z,55.10
2018-10-18T07:57:40.972Z,54.39
2018-10-18T08:00:12.504Z,53.89
2018-10-18T08:02:42.166Z,52.98
2018-10-18T08:05:11.878Z,52.34
2018-10-18T08:07:41.178Z,53.24
2018-10-18T08:10:13.959Z,51.97
2018-10-18T08:12:43.212Z,52.36
2018-10-18T08:15:13.736Z,52.38
2018-10-18T08:17:43.495Z,51.29
2018-10-18T08:20:13.098Z,51.22
2018-10-18T08:22:42.758Z,51.44
2018-10-18T08:25:11.902Z,50.63
2018-10-18T08:27:41.271Z,49.45
2018-10-18T08:30:11.785Z,50.05
2018-10-18T08:32:41.071Z,50.48
2018-10-18T08:35:11.395Z,50.49
2018-10-18T08:37:40.523Z,49.16
2018-10-18T08:40:09.565Z,48.76
2018-10-18T08:42:38.644Z,48.98
2018-10-18T08:45:09.099Z,49.02
2018-10-18T08:47:38.367Z,47.93
2018-10-18T08:50:09.243Z,47.55
2018-10-18T08:52:38.457Z,48.06
2018-10-18T08:55:09.225Z,47.04
2018-10-18T08:57:38.372Z,48.17
2018-10-18T09:00:08.681Z,48.04
2018-10-18T09:02:37.800Z,48.00
2018-10-18T09:05:07.306Z,47.99
2018-10-18T09:07:36.774Z,46.44
2018-10-18T09:10:06.853Z,46.09
2018-10-18T09:12:36.146Z,46.29
2018-10-18T09:15:05.832Z,46.14
2018-10-18T09:17:35.027Z,45.60
2018-10-18T09:20:04.278Z,44.92
2018-10-18T09:22:33.578Z,43.24
2018-10-18T09:25:02.857Z,43.62
2018-10-18T09:27:31.751Z,44.19
2018-10-18T09:30:01.027Z,43.95
2018-10-18T09:32:30.205Z,43.84
2018-10-18T09:34:59.442Z,43.61
2018-10-18T09:37:28.274Z,44.20
2018-10-18T09:39:57.079Z,43.92
2018-10-18T09:42:26.269Z,43.65
2018-10-18T09:44:55.579Z,43.32
2018-10-18T09:47:24.775Z,42.86
2018-10-18T09:49:54.062Z,42.73
2018-10-18T09:52:22.990Z,42.64
2018-10-18T09:54:52.185Z,43.42
2018-10-18T09:57:21.417Z,42.47
2018-10-18T09:59:50.663Z,41.87
2018-10-18T10:02:24.907Z,42.57
2018-10-18T10:04:54.075Z,41.69
2018-10-18T10:07:23.420Z,41.11
2018-10-18T10:09:52.454Z,40.66
2018-10-18T10:12:21.751Z,41.11
2018-10-18T10:14:50.894Z,39.72
2018-10-18T10:30:13.902Z,34.76
2018-10-18T10:32:43.185Z,36.54
2018-10-18T10:35:12.201Z,37.29
2018-10-18T10:37:41.581Z,38.61
2018-10-18T10:40:11.257Z,38.46
2018-10-18T10:42:40.937Z,39.49
2018-10-18T10:45:11.260Z,39.06
2018-10-18T10:47:40.393Z,40.74
2018-10-18T10:50:10.131Z,41.32
2018-10-18T10:52:40.122Z,41.87
2018-10-18T10:55:10.414Z,41.43
2018-10-18T10:57:39.338Z,41.23
2018-10-18T11:00:08.727Z,41.92
2018-10-18T11:02:37.702Z,40.95
2018-10-18T11:05:07.590Z,40.64
2018-10-18T11:07:36.699Z,40.64
2018-10-18T11:10:06.210Z,40.44
2018-10-18T11:12:35.296Z,38.46
2018-10-18T11:15:04.650Z,38.14
2018-10-18T11:17:33.633Z,39.02
2018-10-18T11:20:02.794Z,37.76
2018-10-18T11:22:31.950Z,37.20
2018-10-18T11:25:01.282Z,35.72
2018-10-18T11:27:30.494Z,36.79
2018-10-18T11:29:59.791Z,37.24
2018-10-18T11:32:28.918Z,36.92
2018-10-18T11:34:57.979Z,36.12
2018-10-18T11:37:27.239Z,37.28
2018-10-18T11:39:56.315Z,36.30
2018-10-18T11:42:25.494Z,35.97
2018-10-18T11:44:54.849Z,35.23
2018-10-18T11:47:24.140Z,32.53
2018-10-18T11:49:53.422Z,31.62
2018-10-18T11:52:22.390Z,30.34
2018-10-18T11:54:51.627Z,27.85
2018-10-18T11:57:20.774Z,25.80
2018-10-18T11:59:50.051Z,25.57
2018-10-18T12:02:19.512Z,25.60
2018-10-18T12:04:49.234Z,24.73
2018-10-18T12:07:18.569Z,23.73
2018-10-18T12:09:47.846Z,23.65
2018-10-18T12:12:17.058Z,23.88
2018-10-18T12:14:46.251Z,22.76
2018-10-18T12:17:15.163Z,21.87
2018-10-18T12:19:43.989Z,23.41
2018-10-18T12:22:13.039Z,24.48
2018-10-18T12:24:42.238Z,23.34
2018-10-18T12:27:11.390Z,23.91
2018-10-18T12:29:40.296Z,23.99
2018-10-18T12:32:09.441Z,24.02
2018-10-18T12:34:38.542Z,25.26
2018-10-18T12:37:07.514Z,24.72
2018-10-18T12:39:36.990Z,24.51
2018-10-18T12:42:06.244Z,23.32
2018-10-18T12:44:38.379Z,23.59
2018-10-18T12:47:09.182Z,24.41
2018-10-18T12:49:38.854Z,24.52
2018-10-18T12:52:09.010Z,24.68
2018-10-18T12:54:38.467Z,24.76
2018-10-18T12:57:08.682Z,25.10
2018-10-18T12:59:37.924Z,26.49
2018-10-18T13:02:07.535Z,27.49
2018-10-18T13:04:37.154Z,28.85
2018-10-18T13:07:06.684Z,30.37
2018-10-18T13:09:35.616Z,32.84
2018-10-18T13:12:05.099Z,33.42
2018-10-18T13:14:34.347Z,33.93
2018-10-18T13:17:03.596Z,35.51
2018-10-18T13:19:32.873Z,35.53
2018-10-18T13:22:02.098Z,37.29
2018-10-18T13:24:31.262Z,37.92
2018-10-18T13:27:00.338Z,37.75
2018-10-18T13:29:29.626Z,39.14
2018-10-18T13:31:59.004Z,38.77
2018-10-18T13:34:28.250Z,38.49
2018-10-18T13:36:57.146Z,39.03
2018-10-18T13:39:26.162Z,38.79
2018-10-18T13:41:55.367Z,39.71
2018-10-18T13:44:24.515Z,40.31
2018-10-18T13:46:53.842Z,39.90
2018-10-18T13:49:23.297Z,40.14
2018-10-18T13:51:52.637Z,39.79
2018-10-18T13:54:21.892Z,41.44
2018-10-18T13:56:51.175Z,40.62
2018-10-18T13:59:31.024Z,41.18
2018-10-18T14:02:00.147Z,42.24
2018-10-18T14:04:29.182Z,42.63
2018-10-18T14:06:58.457Z,43.59
2018-10-18T14:09:27.630Z,43.52
2018-10-18T14:11:56.766Z,44.01
2018-10-18T14:14:25.922Z,44.83
2018-10-18T14:16:55.114Z,44.73
2018-10-18T14:19:24.317Z,45.75
2018-10-18T14:21:53.842Z,45.81
2018-10-18T14:24:22.747Z,46.64
2018-10-18T14:26:52.106Z,46.27
2018-10-18T14:29:21.350Z,46.52
2018-10-18T14:31:50.307Z,47.29
2018-10-18T14:34:19.575Z,48.65
2018-10-18T14:36:48.960Z,48.24
2018-10-18T14:39:18.091Z,48.92
2018-10-18T14:41:48.264Z,49.07
2018-10-18T14:44:17.372Z,49.16
2018-10-18T14:46:46.315Z,48.76
2018-10-18T14:49:15.599Z,49.17
2018-10-18T14:51:44.691Z,48.58
2018-10-18T14:54:13.925Z,49.72
2018-10-18T14:56:43.050Z,49.22
2018-10-18T14:59:12.307Z,50.08
2018-10-18T15:01:41.382Z,49.18
2018-10-18T15:04:10.644Z,49.97
2018-10-18T15:06:39.524Z,50.77
2018-10-18T15:09:09.481Z,50.61
2018-10-18T15:11:38.591Z,50.98
2018-10-18T15:14:07.975Z,51.38
2018-10-18T15:16:37.015Z,51.62
2018-10-18T15:19:06.160Z,51.00
2018-10-18T15:21:35.087Z,51.17
2018-10-18T15:24:04.045Z,51.82
2018-10-18T15:26:33.323Z,52.37
2018-10-18T15:29:02.190Z,53.42
2018-10-18T15:31:31.334Z,53.43
2018-10-18T15:34:00.359Z,54.60
2018-10-18T15:36:29.507Z,54.27
2018-10-18T15:38:58.960Z,53.71
2018-10-18T15:41:27.903Z,53.92
2018-10-18T15:43:56.990Z,54.41
2018-10-18T15:46:25.766Z,54.25
2018-10-18T15:48:54.718Z,55.40
2018-10-18T15:51:24.240Z,55.18
2018-10-18T15:53:53.322Z,55.05
2018-10-18T15:56:22.538Z,55.28
2018-10-18T15:58:51.687Z,55.35
2018-10-18T16:01:20.934Z,56.24
2018-10-18T16:03:50.286Z,56.01
2018-10-18T16:06:19.190Z,56.37
2018-10-18T16:08:49.026Z,56.26
2018-10-18T16:11:17.862Z,56.73
2018-10-18T16:13:46.979Z,56.27
2018-10-18T16:16:16.219Z,57.04
2018-10-18T16:18:45.372Z,57.13
2018-10-18T16:21:14.550Z,57.42
2018-10-18T16:23:43.640Z,57.52
2018-10-18T16:26:12.612Z,57.42
2018-10-18T16:28:41.950Z,58.13
2018-10-18T16:31:10.782Z,58.71
2018-10-18T16:33:39.938Z,58.55
2018-10-18T16:36:09.157Z,57.97
2018-10-18T16:38:38.700Z,58.58
2018-10-18T16:41:08.188Z,58.89
2018-10-18T16:43:37.866Z,59.29
2018-10-18T16:46:07.343Z,58.94
2018-10-18T16:48:36.382Z,59.05
2018-10-18T16:51:05.900Z,58.72
2018-10-18T16:53:35.137Z,59.27
2018-10-18T16:56:04.746Z,59.76
2018-10-18T16:58:33.652Z,59.98
2018-10-18T17:01:02.885Z,60.23
2018-10-18T17:03:32.127Z,60.32
2018-10-18T17:06:01.358Z,60.66
2018-10-18T17:08:30.436Z,60.86
2018-10-18T17:10:59.916Z,61.15
2018-10-18T17:13:29.163Z,61.32
2018-10-18T17:15:59.312Z,60.57
2018-10-18T17:18:28.679Z,60.79
2018-10-18T17:20:58.653Z,61.03
2018-10-18T17:23:28.482Z,61.81
2018-10-18T17:25:57.790Z,62.10
2018-10-18T17:28:27.539Z,62.23
2018-10-18T17:30:57.108Z,62.51
2018-10-18T17:33:26.983Z,62.43
2018-10-18T17:35:57.257Z,62.46
2018-10-18T17:38:26.329Z,63.09
2018-10-18T17:40:55.426Z,62.38
2018-10-18T17:43:24.579Z,63.02
2018-10-18T17:45:53.589Z,63.54
2018-10-18T17:48:22.814Z,63.60
2018-10-18T17:50:52.082Z,63.75
2018-10-18T17:53:21.598Z,62.96
2018-10-18T17:55:50.438Z,62.58
2018-10-18T17:58:19.784Z,62.83
2018-10-18T18:00:49.181Z,61.81
2018-10-18T18:03:18.779Z,61.81
2018-10-18T18:05:48.099Z,61.52
2018-10-18T18:08:17.354Z,62.55
2018-10-18T18:10:46.632Z,62.20
2018-10-18T18:13:15.507Z,62.71
2018-10-18T18:15:44.575Z,62.40
2018-10-18T18:18:13.493Z,62.94
2018-10-18T18:20:42.630Z,63.46
2018-10-18T18:23:11.608Z,63.54
2018-10-18T18:25:40.765Z,63.97
2018-10-18T18:28:09.858Z,63.54
2018-10-18T18:30:38.906Z,63.99
2018-10-18T18:33:07.667Z,65.05
2018-10-18T18:35:36.554Z,64.61
2018-10-18T18:38:05.786Z,65.33
2018-10-18T18:40:35.104Z,65.05
2018-10-18T18:43:04.206Z,65.58
2018-10-18T18:45:35.729Z,65.59
2018-10-18T18:48:05.423Z,66.59
2018-10-18T18:50:34.475Z,65.96
2018-10-18T18:53:03.563Z,66.40
2018-10-18T18:55:32.706Z,67.37
2018-10-18T18:58:01.610Z,67.68
2018-10-18T19:00:30.770Z,67.69
2018-10-18T19:02:59.850Z,67.25
2018-10-18T19:05:29.069Z,67.33
2018-10-18T19:07:58.210Z,68.03
2018-10-18T19:10:27.329Z,67.78
2018-10-18T19:12:56.512Z,68.03
2018-10-18T19:15:25.504Z,67.96
2018-10-18T19:17:54.374Z,67.19
2018-10-18T19:20:23.297Z,66.87
2018-10-18T19:22:52.609Z,67.62
2018-10-18T19:25:21.667Z,66.72
2018-10-18T19:27:50.932Z,66.90
2018-10-18T19:30:19.925Z,66.52
2018-10-18T19:32:49.131Z,66.68
2018-10-18T19:35:17.794Z,67.10
2018-10-18T19:37:46.603Z,67.59
2018-10-18T19:40:15.329Z,67.32
2018-10-18T19:42:44.365Z,67.62
2018-10-18T19:45:13.515Z,67.09
2018-10-18T19:47:42.717Z,66.83
2018-10-18T19:50:11.483Z,67.14
2018-10-18T19:52:40.611Z,67.22
2018-10-18T19:55:10.166Z,68.00
2018-10-18T19:57:39.071Z,68.25
2018-10-18T20:00:08.852Z,68.11
2018-10-18T20:02:38.159Z,68.12
2018-10-18T20:05:08.019Z,68.40
2018-10-18T20:07:36.973Z,68.17
2018-10-18T20:10:06.727Z,68.32
2018-10-18T20:12:35.765Z,68.70
2018-10-18T20:15:04.909Z,69.25
2018-10-18T20:17:33.719Z,69.42
2018-10-18T20:20:03.108Z,69.67
2018-10-18T20:22:32.131Z,68.99
2018-10-18T20:25:01.422Z,69.26
2018-10-18T20:27:30.626Z,69.19
2018-10-18T20:29:59.531Z,68.17
2018-10-18T20:32:28.777Z,66.47
2018-10-18T20:34:58.607Z,67.01
2018-10-18T20:37:27.622Z,67.00
2018-10-18T20:39:56.696Z,68.35
2018-10-18T20:42:25.608Z,69.05
2018-10-18T20:44:54.831Z,69.29
2018-10-18T20:47:23.986Z,69.50
2018-10-18T20:49:52.799Z,70.22
2018-10-18T20:52:21.862Z,70.02
2018-10-18T20:54:50.987Z,69.28
2018-10-18T20:57:20.144Z,69.20
2018-10-18T20:59:49.113Z,68.40
2018-10-18T21:02:18.119Z,69.37
2018-10-18T21:04:47.210Z,69.64
2018-10-18T21:07:16.033Z,70.37
2018-10-18T21:09:44.835Z,69.93
2018-10-18T21:12:13.886Z,69.90
2018-10-18T21:14:42.558Z,70.58
2018-10-18T21:17:11.548Z,69.89
2018-10-18T21:19:40.665Z,70.21
2018-10-18T21:22:09.832Z,70.27
2018-10-18T21:24:38.889Z,70.19
2018-10-18T21:27:07.822Z,70.28
2018-10-18T21:29:36.850Z,71.05
2018-10-18T21:32:06.066Z,71.46
2018-10-18T21:34:34.881Z,70.85
2018-10-18T21:37:03.914Z,70.02
2018-10-18T21:39:34.966Z,69.66
2018-10-18T21:42:04.764Z,70.65
2018-10-18T21:44:35.395Z,71.10
2018-10-18T21:47:04.765Z,71.33
2018-10-18T21:49:33.641Z,72.28
2018-10-18T21:52:02.761Z,72.37
2018-10-18T21:54:32.069Z,72.66
2018-10-18T21:57:01.148Z,71.94
2018-10-18T21:59:30.159Z,71.98
2018-10-18T22:01:59.150Z,72.02
2018-10-18T22:04:28.150Z,72.61
2018-10-18T22:06:57.479Z,70.81
2018-10-18T22:09:26.582Z,69.69
2018-10-18T22:11:55.779Z,70.76
2018-10-18T22:14:25.033Z,70.31
2018-10-18T22:16:54.091Z,69.41
2018-10-18T22:19:23.171Z,69.63
2018-10-18T22:21:52.042Z,70.36
2018-10-18T22:24:20.916Z,70.23
2018-10-18T22:26:50.198Z,70.22
2018-10-18T22:29:19.064Z,71.24
2018-10-18T22:31:48.098Z,70.57
2018-10-18T22:34:17.417Z,71.05
2018-10-18T22:36:46.682Z,70.86
2018-10-18T22:39:16.029Z,70.59
2018-10-18T22:41:45.035Z,70.58
2018-10-18T22:44:14.102Z,70.84
2018-10-18T22:46:43.378Z,70.24
2018-10-18T22:49:12.450Z,69.80
2018-10-18T22:51:41.650Z,70.16
2018-10-18T22:54:10.642Z,70.35
2018-10-18T22:56:39.838Z,70.92
2018-10-18T22:59:08.969Z,71.80
2018-10-18T23:01:38.134Z,72.42
2018-10-18T23:04:07.268Z,72.23
2018-10-18T23:06:36.479Z,72.42
2018-10-18T23:09:08.563Z,72.94
2018-10-18T23:11:37.590Z,73.24
2018-10-18T23:14:07.850Z,73.53
2018-10-18T23:16:36.946Z,72.49
2018-10-18T23:19:06.914Z,73.14
2018-10-18T23:21:35.917Z,73.49
2018-10-18T23:24:05.146Z,73.28
2018-10-18T23:26:34.343Z,73.88
2018-10-18T23:29:03.352Z,73.96
2018-10-18T23:31:32.510Z,73.48
2018-10-18T23:34:01.840Z,73.73
2018-10-18T23:36:30.987Z,73.26
2018-10-18T23:39:00.048Z,74.63
2018-10-18T23:41:29.183Z,74.28
2018-10-18T23:43:58.002Z,75.41
2018-10-18T23:46:26.875Z,74.85
2018-10-18T23:48:56.203Z,75.22
2018-10-18T23:51:25.233Z,75.71
2018-10-18T23:53:54.493Z,75.28
2018-10-18T23:56:23.707Z,75.27
2018-10-18T23:58:52.847Z,76.07
